createdAt,value
2019-05-28T00:01:43.513Z,20.73
2019-05-28T00:06:48.900Z,16.77
2019-05-28T00:11:54.312Z,20.43
2019-05-28T00:16:59.500Z,21.80
2019-05-28T00:22:04.996Z,20.87
2019-05-28T00:27:10.345Z,21.20
2019-05-28T00:32:15.574Z,22.70
2019-05-28T00:37:21.094Z,21.20
2019-05-28T00:42:26.617Z,21.03
2019-05-28T00:47:31.991Z,22.30
2019-05-28T00:52:39.103Z,22.40
2019-05-28T00:57:46.848Z,24.80
2019-05-28T01:02:52.272Z,23.80
2019-05-28T01:07:58.337Z,23.50
2019-05-28T01:13:03.575Z,24.40
2019-05-28T01:18:10.091Z,25.13
2019-05-28T01:23:15.692Z,24.57
2019-05-28T01:28:21.557Z,24.47
2019-05-28T01:33:27.605Z,25.13
2019-05-28T01:38:33.174Z,24.90
2019-05-28T01:43:38.764Z,23.80
2019-05-28T01:48:44.254Z,24.87
2019-05-28T01:53:49.618Z,24.83
2019-05-28T01:58:55.003Z,24.10
2019-05-28T02:03:59.971Z,26.50
2019-05-28T02:09:07.381Z,26.40
2019-05-28T02:14:12.651Z,27.23
2019-05-28T02:19:18.068Z,27.03
2019-05-28T02:24:23.650Z,27.57
2019-05-28T02:29:28.975Z,28.97
2019-05-28T02:34:34.375Z,28.33
2019-05-28T02:39:39.749Z,24.10
2019-05-28T02:44:44.828Z,29.97
2019-05-28T02:50:10.123Z,29.37
2019-05-28T02:55:15.665Z,30.13
2019-05-28T03:00:21.634Z,29.10
2019-05-28T03:05:29.155Z,25.70
2019-05-28T03:11:01.879Z,31.70
2019-05-28T03:15:48.808Z,30.33
2019-05-28T03:20:57.268Z,29.43
2019-05-28T03:26:02.614Z,34.63
2019-05-28T03:31:08.060Z,37.93
2019-05-28T03:36:14.833Z,39.63
2019-05-28T03:41:20.198Z,39.43
2019-05-28T03:46:25.687Z,39.20
2019-05-28T03:51:30.974Z,39.13
2019-05-28T03:56:36.270Z,42.20
2019-05-28T04:01:41.604Z,41.97
2019-05-28T04:06:47.032Z,42.53
2019-05-28T04:11:52.479Z,42.20
2019-05-28T04:16:57.580Z,45.33
2019-05-28T04:22:03.020Z,45.07
2019-05-28T04:27:08.283Z,44.47
2019-05-28T04:32:13.703Z,39.60
2019-05-28T04:37:19.048Z,45.83
2019-05-28T04:42:24.690Z,46.07
2019-05-28T04:47:30.483Z,43.77
2019-05-28T04:52:36.256Z,43.77
2019-05-28T04:57:41.788Z,35.43
2019-05-28T05:02:58.530Z,37.00
2019-05-28T05:07:54.904Z,37.30
2019-05-28T05:13:00.506Z,32.73
2019-05-28T05:18:06.294Z,33.17
2019-05-28T05:23:12.125Z,30.77
2019-05-28T05:28:18.696Z,30.20
2019-05-28T05:33:25.103Z,39.07
2019-05-28T05:38:30.197Z,23.53
2019-05-28T05:43:35.490Z,28.43
2019-05-28T05:48:40.676Z,27.07
2019-05-28T05:53:46.136Z,28.00
2019-05-28T05:58:51.808Z,26.70
2019-05-28T06:03:57.697Z,26.37
2019-05-28T06:09:03.143Z,27.60
2019-05-28T06:14:08.715Z,29.37
2019-05-28T06:19:14.331Z,24.53
2019-05-28T06:24:19.707Z,30.17
2019-05-28T06:29:25.317Z,31.00
2019-05-28T06:34:30.953Z,31.33
2019-05-28T06:39:36.415Z,33.03
2019-05-28T06:44:42.045Z,32.53
2019-05-28T06:49:47.187Z,34.17
2019-05-28T06:54:52.824Z,30.43
2019-05-28T06:59:58.229Z,37.23
2019-05-28T07:05:03.737Z,35.20
2019-05-28T07:10:09.897Z,39.53
2019-05-28T07:15:15.880Z,33.70
2019-05-28T07:20:21.560Z,39.07
2019-05-28T07:25:26.688Z,34.67
2019-05-28T07:30:32.458Z,41.63
2019-05-28T07:35:45.675Z,42.77
2019-05-28T07:40:44.643Z,42.57
2019-05-28T07:45:50.165Z,39.37
2019-05-28T07:50:55.539Z,49.33
2019-05-28T07:56:01.518Z,40.60
2019-05-28T08:01:06.980Z,46.23
2019-05-28T08:06:12.153Z,41.73
2019-05-28T08:11:17.503Z,42.90
2019-05-28T08:16:24.270Z,45.53
2019-05-28T08:21:32.322Z,42.00
2019-05-28T08:26:37.054Z,39.30
2019-05-28T08:31:42.794Z,40.67
2019-05-28T08:37:04.305Z,39.43
2019-05-28T08:41:55.073Z,45.20
2019-05-28T08:47:00.216Z,37.83
2019-05-28T08:52:05.723Z,33.60
2019-05-28T08:57:11.286Z,37.07
2019-05-28T09:02:27.197Z,34.43
2019-05-28T09:07:23.772Z,35.23
2019-05-28T09:12:29.275Z,29.60
2019-05-28T09:17:34.653Z,32.83
2019-05-28T09:22:40.004Z,30.70
2019-05-28T09:27:45.565Z,31.07
2019-05-28T09:32:50.953Z,30.20
2019-05-28T09:37:56.634Z,29.10
2019-05-28T09:43:02.047Z,30.30
2019-05-28T09:48:07.530Z,30.30
2019-05-28T09:53:13.393Z,31.30
2019-05-28T09:58:18.925Z,31.13
2019-05-28T10:03:24.103Z,32.90
2019-05-28T10:08:29.273Z,29.03
2019-05-28T10:13:40.639Z,30.80
2019-05-28T10:18:43.094Z,31.53
2019-05-28T10:23:49.854Z,30.33
2019-05-28T10:28:55.284Z,30.17
2019-05-28T10:34:00.774Z,30.20
2019-05-28T10:39:08.796Z,30.23
2019-05-28T10:44:14.477Z,29.70
2019-05-28T10:49:20.028Z,30.73
2019-05-28T10:54:25.193Z,32.37
2019-05-28T10:59:30.352Z,34.37
2019-05-28T11:04:35.444Z,34.20
2019-05-28T11:09:40.932Z,36.80
2019-05-28T11:14:46.593Z,35.87
2019-05-28T11:19:51.783Z,34.70
2019-05-28T11:24:58.112Z,33.67
2019-05-28T11:30:04.073Z,34.83
2019-05-28T11:35:11.032Z,34.53
2019-05-28T11:40:18.801Z,33.43
2019-05-28T11:45:24.591Z,31.20
2019-05-28T11:50:29.832Z,33.00
2019-05-28T11:55:34.984Z,32.20
2019-05-28T12:00:41.150Z,34.23
2019-05-28T12:05:46.713Z,33.17
2019-05-28T12:10:52.039Z,31.40
2019-05-28T12:15:57.473Z,33.57
2019-05-28T12:21:02.914Z,35.50
2019-05-28T12:26:08.864Z,31.03
2019-05-28T12:31:14.952Z,30.60
2019-05-28T12:36:40.082Z,34.30
2019-05-28T12:42:01.161Z,32.53
2019-05-28T12:46:55.553Z,31.53
2019-05-28T12:52:01.353Z,35.13
2019-05-28T12:57:06.632Z,36.27
2019-05-28T13:02:13.874Z,37.50
2019-05-28T13:07:19.944Z,41.10
2019-05-28T13:12:25.353Z,32.60
2019-05-28T13:17:31.037Z,33.40
2019-05-28T13:22:37.072Z,36.50
2019-05-28T13:27:43.479Z,35.43
2019-05-28T13:32:49.352Z,35.50
2019-05-28T13:37:55.393Z,34.80
2019-05-28T13:43:03.682Z,33.20
2019-05-28T13:48:09.712Z,30.67
2019-05-28T13:53:15.592Z,29.37
2019-05-28T13:58:21.065Z,30.67
2019-05-28T14:03:27.072Z,27.63
2019-05-28T14:08:45.464Z,30.27
2019-05-28T14:13:39.632Z,29.13
2019-05-28T14:18:45.192Z,25.53
2019-05-28T14:23:51.554Z,29.43
2019-05-28T14:28:56.993Z,31.50
2019-05-28T14:34:03.034Z,32.00
2019-05-28T14:39:10.305Z,33.17
2019-05-28T14:44:16.162Z,31.73
2019-05-28T14:49:22.040Z,29.70
2019-05-28T14:54:27.992Z,32.83
2019-05-28T14:59:33.432Z,33.40
2019-05-28T15:04:39.401Z,31.43
2019-05-28T15:09:45.312Z,30.03
2019-05-28T15:14:50.998Z,29.83
2019-05-28T15:19:56.272Z,32.07
2019-05-28T15:25:02.399Z,33.90
2019-05-28T15:30:09.112Z,35.60
2019-05-28T15:35:15.585Z,35.10
2019-05-28T15:40:21.672Z,35.10
2019-05-28T15:45:27.487Z,43.43
2019-05-28T15:50:33.078Z,52.33
2019-05-28T15:55:38.483Z,50.40
2019-05-28T16:00:44.122Z,41.33
2019-05-28T16:05:49.785Z,42.73
2019-05-28T16:10:55.683Z,39.67
2019-05-28T16:16:01.282Z,41.53
2019-05-28T16:21:06.993Z,33.47
2019-05-28T16:26:12.952Z,30.90
2019-05-28T16:31:18.792Z,28.43
2019-05-28T16:36:24.511Z,28.37
2019-05-28T16:41:30.185Z,24.33
2019-05-28T16:46:35.446Z,28.63
2019-05-28T16:51:40.785Z,24.73
2019-05-28T16:56:46.593Z,22.60
2019-05-28T17:01:53.521Z,18.93
2019-05-28T17:06:59.072Z,19.65
2019-05-28T17:12:04.923Z,16.33
2019-05-28T17:17:10.757Z,15.33
2019-05-28T17:22:16.551Z,14.43
2019-05-28T17:27:22.903Z,13.23
2019-05-28T17:32:29.037Z,13.47
2019-05-28T17:37:35.111Z,14.97
2019-05-28T17:42:40.837Z,15.97
2019-05-28T17:47:46.393Z,16.77
2019-05-28T17:52:53.747Z,17.13
2019-05-28T17:57:59.516Z,16.23
2019-05-28T18:03:04.951Z,17.57
2019-05-28T18:08:10.350Z,17.20
2019-05-28T18:13:34.986Z,16.10
2019-05-28T18:18:40.595Z,16.17
2019-05-28T18:23:46.207Z,15.53
2019-05-28T18:28:51.927Z,17.13
2019-05-28T18:33:58.029Z,19.37
2019-05-28T18:39:03.727Z,15.67
2019-05-28T18:44:09.581Z,15.97
2019-05-28T18:49:16.479Z,14.60
2019-05-28T18:54:22.484Z,14.33
2019-05-28T18:59:28.326Z,13.37
2019-05-28T19:04:34.476Z,12.97
2019-05-28T19:09:40.504Z,13.47
2019-05-28T19:14:46.000Z,13.07
2019-05-28T19:19:51.856Z,14.57
2019-05-28T19:24:57.501Z,13.30
2019-05-28T19:30:03.067Z,13.97
2019-05-28T19:35:08.942Z,13.47
2019-05-28T19:40:16.995Z,14.23
2019-05-28T19:45:22.103Z,13.10
2019-05-28T19:50:27.500Z,13.30
2019-05-28T19:55:32.692Z,13.57
2019-05-28T20:00:37.806Z,13.87
2019-05-28T20:05:42.927Z,13.03
2019-05-28T20:10:50.635Z,13.20
2019-05-28T20:15:56.909Z,12.87
2019-05-28T20:21:01.958Z,14.50
2019-05-28T20:26:07.438Z,13.63
2019-05-28T20:31:12.873Z,14.67
2019-05-28T20:36:18.149Z,15.30
2019-05-28T20:41:23.719Z,16.23
2019-05-28T20:46:28.936Z,17.93
2019-05-28T20:51:34.506Z,16.53
2019-05-28T20:56:39.724Z,16.83
2019-05-28T21:01:45.120Z,16.53
2019-05-28T21:06:50.551Z,16.63
2019-05-28T21:11:56.346Z,16.47
2019-05-28T21:17:01.946Z,17.73
2019-05-28T21:22:07.000Z,16.13
2019-05-28T21:27:12.708Z,16.93
2019-05-28T21:32:18.137Z,16.53
2019-05-28T21:37:23.539Z,16.20
2019-05-28T21:42:29.361Z,16.80
2019-05-28T21:47:34.722Z,16.47
2019-05-28T21:52:40.043Z,17.03
2019-05-28T21:57:45.077Z,15.77
2019-05-28T22:02:50.075Z,17.13
2019-05-28T22:07:55.307Z,17.17
2019-05-28T22:13:16.414Z,17.10
2019-05-28T22:18:08.558Z,16.37
2019-05-28T22:23:13.933Z,15.93
2019-05-28T22:28:19.247Z,13.33
2019-05-28T22:33:24.868Z,11.30
2019-05-28T22:38:29.956Z,11.70
2019-05-28T22:43:35.400Z,12.00
2019-05-28T22:48:40.800Z,13.93
2019-05-28T22:53:46.303Z,12.97
2019-05-28T22:58:51.707Z,12.43
2019-05-28T23:03:57.024Z,12.57
2019-05-28T23:09:02.039Z,13.97
2019-05-28T23:14:08.203Z,13.77
2019-05-28T23:19:13.647Z,12.93
2019-05-28T23:24:19.032Z,12.70
2019-05-28T23:29:24.231Z,13.20
2019-05-28T23:34:29.589Z,12.77
2019-05-28T23:39:34.978Z,12.60
2019-05-28T23:44:40.292Z,11.80
2019-05-28T23:49:45.688Z,11.57
2019-05-28T23:54:51.019Z,12.37
2019-05-28T23:59:56.318Z,11.63
